createdAt,value
2022-11-17T00:00:42.303Z,3.20
2022-11-17T00:03:17.479Z,3.37
2022-11-17T00:05:45.257Z,3.23
2022-11-17T00:08:12.536Z,3.20
2022-11-17T00:10:40.003Z,3.30
2022-11-17T00:13:27.283Z,3.40
2022-11-17T00:15:57.816Z,2.97
2022-11-17T00:18:43.262Z,3.50
2022-11-17T00:21:24.108Z,3.30
2022-11-17T00:23:51.628Z,3.20
2022-11-17T00:26:28.012Z,3.17
2022-11-17T00:29:14.961Z,3.13
2022-11-17T00:32:06.595Z,2.93
2022-11-17T00:34:33.904Z,2.80
2022-11-17T00:37:01.145Z,2.70
2022-11-17T00:39:31.771Z,2.70
2022-11-17T00:41:59.080Z,2.70
2022-11-17T00:44:26.746Z,2.63
2022-11-17T00:46:54.054Z,2.70
2022-11-17T00:49:25.706Z,2.90
2022-11-17T00:51:54.560Z,2.60
2022-11-17T00:54:22.843Z,2.63
2022-11-17T00:56:50.689Z,2.67
2022-11-17T00:59:18.094Z,3.20
2022-11-17T01:01:51.854Z,3.57
2022-11-17T01:04:22.626Z,2.40
2022-11-17T01:06:58.552Z,2.30
2022-11-17T01:09:27.119Z,2.57
2022-11-17T01:11:54.525Z,2.83
2022-11-17T01:14:33.212Z,2.40
2022-11-17T01:17:08.104Z,2.50
2022-11-17T01:19:38.288Z,2.50
2022-11-17T01:22:06.189Z,2.90
2022-11-17T01:24:38.751Z,2.87
2022-11-17T01:27:38.074Z,3.07
2022-11-17T01:30:05.943Z,2.90
2022-11-17T01:32:32.957Z,2.50
2022-11-17T01:35:03.129Z,2.60
2022-11-17T01:37:30.339Z,3.20
2022-11-17T01:39:57.433Z,2.80
2022-11-17T01:42:29.051Z,2.83
2022-11-17T01:45:05.924Z,2.80
2022-11-17T01:47:48.215Z,2.90
2022-11-17T01:50:30.570Z,3.10
2022-11-17T01:53:02.429Z,2.77
2022-11-17T01:55:36.180Z,3.10
2022-11-17T01:58:09.250Z,2.73
2022-11-17T02:00:39.527Z,2.93
2022-11-17T02:03:15.860Z,3.03
2022-11-17T02:05:55.976Z,2.77
2022-11-17T02:08:37.070Z,2.60
2022-11-17T02:11:08.578Z,2.70
2022-11-17T02:13:41.964Z,3.47
2022-11-17T02:16:21.311Z,2.60
2022-11-17T02:18:52.306Z,3.00
2022-11-17T02:21:33.841Z,3.13
2022-11-17T02:24:25.430Z,2.47
2022-11-17T02:27:28.806Z,3.27
2022-11-17T02:30:05.531Z,2.90
2022-11-17T02:32:47.578Z,2.90
2022-11-17T02:35:44.265Z,2.97
2022-11-17T02:38:23.555Z,2.80
2022-11-17T02:41:14.393Z,2.43
2022-11-17T02:44:05.207Z,2.90
2022-11-17T02:46:48.379Z,3.00
2022-11-17T02:49:23.156Z,2.77
2022-11-17T02:51:57.348Z,2.60
2022-11-17T02:54:28.738Z,3.10
2022-11-17T02:56:55.867Z,2.90
2022-11-17T02:59:36.165Z,2.77
2022-11-17T03:02:41.459Z,2.90
2022-11-17T03:05:35.866Z,2.47
2022-11-17T03:08:36.206Z,2.83
2022-11-17T03:11:08.108Z,2.70
2022-11-17T03:13:51.545Z,2.53
2022-11-17T03:16:39.079Z,2.70
2022-11-17T03:19:17.766Z,2.90
2022-11-17T03:22:15.635Z,3.00
2022-11-17T03:25:07.257Z,2.80
2022-11-17T03:28:14.047Z,2.80
2022-11-17T03:30:46.674Z,2.70
2022-11-17T03:33:30.284Z,2.70
2022-11-17T03:36:04.577Z,2.80
2022-11-17T03:38:41.564Z,2.77
2022-11-17T03:41:14.546Z,3.00
2022-11-17T03:43:44.059Z,3.13
2022-11-17T03:46:16.543Z,3.00
2022-11-17T03:48:50.859Z,2.80
2022-11-17T03:51:27.224Z,2.93
2022-11-17T03:53:57.931Z,3.00
2022-11-17T03:56:37.066Z,3.00
2022-11-17T03:59:28.024Z,2.90
2022-11-17T04:01:59.154Z,2.77
2022-11-17T04:04:49.668Z,2.87
2022-11-17T04:07:24.232Z,2.90
2022-11-17T04:10:17.730Z,2.63
2022-11-17T04:13:10.696Z,2.97
2022-11-17T04:15:59.291Z,2.90
2022-11-17T04:18:33.434Z,2.67
2022-11-17T04:21:04.384Z,2.53
2022-11-17T04:23:44.016Z,2.80
2022-11-17T04:26:39.639Z,2.63
2022-11-17T04:29:10.871Z,2.90
2022-11-17T04:31:53.389Z,2.57
2022-11-17T04:34:29.805Z,3.03
2022-11-17T04:37:05.317Z,2.57
2022-11-17T04:39:45.181Z,3.17
2022-11-17T04:42:21.443Z,2.70
2022-11-17T04:44:48.564Z,2.47
2022-11-17T04:47:24.730Z,2.47
2022-11-17T04:50:04.067Z,2.53
2022-11-17T04:52:37.890Z,2.70
2022-11-17T04:55:08.427Z,2.30
2022-11-17T04:57:40.451Z,2.57
2022-11-17T05:00:11.832Z,2.30
2022-11-17T05:02:50.017Z,2.33
2022-11-17T05:05:26.580Z,2.90
2022-11-17T05:08:02.524Z,2.13
2022-11-17T05:11:16.146Z,2.73
2022-11-17T05:14:01.575Z,2.40
2022-11-17T05:16:57.832Z,2.50
2022-11-17T05:19:37.124Z,2.13
2022-11-17T05:22:30.186Z,2.53
2022-11-17T05:25:01.215Z,2.50
2022-11-17T05:27:28.504Z,2.40
2022-11-17T05:29:59.310Z,2.87
2022-11-17T05:32:26.268Z,2.80
2022-11-17T05:34:53.197Z,2.20
2022-11-17T05:37:20.172Z,2.13
2022-11-17T05:39:47.113Z,2.63
2022-11-17T05:42:14.063Z,2.37
2022-11-17T05:44:40.969Z,2.20
2022-11-17T05:47:07.969Z,2.50
2022-11-17T05:49:35.002Z,2.30
2022-11-17T05:52:02.012Z,2.40
2022-11-17T05:54:28.995Z,2.43
2022-11-17T05:57:03.794Z,2.43
2022-11-17T05:59:36.305Z,2.50
2022-11-17T06:02:37.072Z,2.30
2022-11-17T06:05:07.816Z,2.10
2022-11-17T06:07:37.347Z,2.40
2022-11-17T06:10:08.575Z,2.40
2022-11-17T06:12:38.728Z,2.30
2022-11-17T06:15:06.886Z,2.20
2022-11-17T06:17:39.627Z,2.10
2022-11-17T06:20:15.665Z,2.30
2022-11-17T06:22:47.102Z,2.50
2022-11-17T06:25:28.658Z,2.17
2022-11-17T06:28:07.757Z,2.40
2022-11-17T06:30:40.233Z,2.40
2022-11-17T06:33:13.609Z,2.50
2022-11-17T06:35:44.952Z,2.53
2022-11-17T06:38:14.742Z,2.47
2022-11-17T06:40:41.734Z,2.73
2022-11-17T06:43:09.803Z,2.43
2022-11-17T06:45:37.767Z,2.40
2022-11-17T06:48:06.287Z,2.40
2022-11-17T06:50:48.950Z,2.53
2022-11-17T06:53:16.144Z,2.10
2022-11-17T06:55:46.120Z,2.37
2022-11-17T06:58:13.038Z,2.20
2022-11-17T07:00:40.101Z,2.20
2022-11-17T07:03:09.359Z,2.43
2022-11-17T07:05:40.212Z,2.00
2022-11-17T07:08:09.234Z,2.50
2022-11-17T07:10:36.914Z,2.60
2022-11-17T07:13:04.052Z,2.53
2022-11-17T07:15:31.891Z,2.70
2022-11-17T07:17:58.953Z,3.10
2022-11-17T07:20:25.909Z,2.83
2022-11-17T07:22:57.971Z,2.83
2022-11-17T07:25:24.931Z,2.87
2022-11-17T07:27:59.508Z,3.10
2022-11-17T07:30:27.094Z,3.17
2022-11-17T07:32:54.970Z,3.50
2022-11-17T07:35:22.148Z,3.47
2022-11-17T07:37:49.103Z,3.43
2022-11-17T07:40:16.213Z,3.20
2022-11-17T07:42:48.250Z,3.20
2022-11-17T07:45:15.236Z,3.17
2022-11-17T07:47:42.430Z,3.37
2022-11-17T07:50:09.964Z,3.40
2022-11-17T07:52:41.232Z,3.30
2022-11-17T07:55:09.174Z,3.30
2022-11-17T07:57:36.438Z,3.47
2022-11-17T08:00:04.037Z,4.03
2022-11-17T08:02:33.591Z,3.53
2022-11-17T08:05:00.524Z,3.77
2022-11-17T08:07:27.795Z,3.37
2022-11-17T08:10:07.914Z,3.53
2022-11-17T08:12:39.165Z,3.53
2022-11-17T08:15:07.188Z,3.90
2022-11-17T08:17:34.278Z,3.90
2022-11-17T08:20:01.243Z,3.60
2022-11-17T08:22:28.300Z,3.53
2022-11-17T08:24:55.208Z,3.47
2022-11-17T08:27:22.215Z,3.83
2022-11-17T08:29:49.441Z,4.03
2022-11-17T08:32:16.496Z,4.40
2022-11-17T08:34:43.359Z,3.80
2022-11-17T08:37:10.174Z,4.03
2022-11-17T08:39:37.126Z,4.30
2022-11-17T08:42:03.976Z,3.97
2022-11-17T08:44:31.465Z,4.50
2022-11-17T08:46:58.333Z,4.40
2022-11-17T08:49:25.169Z,4.03
2022-11-17T08:51:51.994Z,3.93
2022-11-17T08:54:18.884Z,3.93
2022-11-17T08:56:46.631Z,4.10
2022-11-17T08:59:13.865Z,4.20
2022-11-17T09:01:40.984Z,4.47
2022-11-17T09:04:07.849Z,4.40
2022-11-17T09:06:34.712Z,4.37
2022-11-17T09:09:01.772Z,4.50
2022-11-17T09:11:28.930Z,3.87
2022-11-17T09:13:55.782Z,4.30
2022-11-17T09:16:24.092Z,3.87
2022-11-17T09:18:59.870Z,4.30
2022-11-17T09:21:27.343Z,4.40
2022-11-17T09:23:55.264Z,4.43
2022-11-17T09:26:22.316Z,4.40
2022-11-17T09:28:49.241Z,4.67
2022-11-17T09:31:19.033Z,4.30
2022-11-17T09:33:46.566Z,5.10
2022-11-17T09:36:15.628Z,4.40
2022-11-17T09:38:48.072Z,4.80
2022-11-17T09:41:35.880Z,4.53
2022-11-17T09:44:15.524Z,4.43
2022-11-17T09:46:54.352Z,4.77
2022-11-17T09:49:47.702Z,4.60
2022-11-17T09:52:33.441Z,4.17
2022-11-17T09:55:04.180Z,4.93
2022-11-17T09:57:33.789Z,4.70
2022-11-17T10:00:07.615Z,5.43
2022-11-17T10:02:34.751Z,5.23
2022-11-17T10:05:02.008Z,5.37
2022-11-17T10:07:31.854Z,4.60
2022-11-17T10:10:01.835Z,5.17
2022-11-17T10:12:38.984Z,5.20
2022-11-17T10:15:23.510Z,5.30
2022-11-17T10:17:51.579Z,5.53
2022-11-17T10:20:19.063Z,5.60
2022-11-17T10:22:47.711Z,5.90
2022-11-17T10:25:39.410Z,5.47
2022-11-17T10:28:08.496Z,5.30
2022-11-17T10:30:35.823Z,5.70
2022-11-17T10:33:03.451Z,6.65
2022-11-17T10:35:33.756Z,6.67
2022-11-17T10:38:28.424Z,6.00
2022-11-17T10:40:59.337Z,6.17
2022-11-17T10:43:32.036Z,5.80
2022-11-17T10:46:10.557Z,6.43
2022-11-17T10:48:41.941Z,5.37
2022-11-17T10:51:19.515Z,5.93
2022-11-17T10:54:00.898Z,6.10
2022-11-17T10:56:28.998Z,6.00
2022-11-17T10:59:01.337Z,6.37
2022-11-17T11:01:40.717Z,6.17
2022-11-17T11:04:27.174Z,6.00
2022-11-17T11:07:21.511Z,5.57
2022-11-17T11:10:17.719Z,6.53
2022-11-17T11:12:59.223Z,5.90
2022-11-17T11:15:32.694Z,5.37
2022-11-17T11:18:00.871Z,5.50
2022-11-17T11:20:40.956Z,6.27
2022-11-17T11:23:17.186Z,5.77
2022-11-17T11:26:08.296Z,5.60
2022-11-17T11:28:47.944Z,6.00
2022-11-17T11:31:20.469Z,5.87
2022-11-17T11:34:01.423Z,5.37
2022-11-17T11:36:46.630Z,5.40
2022-11-17T11:39:31.164Z,5.37
2022-11-17T11:42:16.342Z,5.20
2022-11-17T11:45:01.869Z,5.17
2022-11-17T11:47:52.640Z,5.63
2022-11-17T11:50:24.136Z,5.33
2022-11-17T11:53:11.201Z,5.47
2022-11-17T11:55:41.225Z,5.80
2022-11-17T11:58:24.683Z,5.70
2022-11-17T12:00:55.432Z,5.73
2022-11-17T12:03:28.966Z,5.60
2022-11-17T12:06:43.371Z,4.90
2022-11-17T12:09:13.220Z,5.00
2022-11-17T12:12:01.009Z,5.03
2022-11-17T12:14:33.049Z,5.20
2022-11-17T12:17:14.829Z,5.10
2022-11-17T12:19:44.962Z,5.30
2022-11-17T12:22:29.168Z,4.93
2022-11-17T12:25:14.250Z,5.00
2022-11-17T12:27:45.842Z,5.00
2022-11-17T12:30:30.935Z,5.70
2022-11-17T12:33:04.039Z,6.23
2022-11-17T12:35:34.976Z,5.70
2022-11-17T12:38:16.937Z,6.20
2022-11-17T12:40:51.612Z,5.40
2022-11-17T12:43:26.708Z,5.70
2022-11-17T12:45:53.474Z,5.43
2022-11-17T12:48:34.716Z,5.77
2022-11-17T12:51:17.040Z,5.00
2022-11-17T12:54:22.993Z,4.90
2022-11-17T12:57:11.401Z,4.70
2022-11-17T13:00:14.491Z,4.87
2022-11-17T13:03:04.811Z,4.37
2022-11-17T13:05:31.849Z,4.80
2022-11-17T13:08:15.090Z,4.67
2022-11-17T13:10:42.059Z,4.77
2022-11-17T13:13:21.170Z,4.80
2022-11-17T13:15:53.551Z,4.80
2022-11-17T13:18:33.904Z,5.13
2022-11-17T13:21:01.595Z,4.67
2022-11-17T13:23:30.719Z,4.70
2022-11-17T13:26:16.309Z,5.00
2022-11-17T13:28:44.698Z,5.37
2022-11-17T13:31:24.076Z,4.97
2022-11-17T13:34:06.320Z,5.20
2022-11-17T13:36:34.249Z,5.10
2022-11-17T13:39:01.194Z,4.87
2022-11-17T13:41:49.205Z,4.80
2022-11-17T13:44:23.122Z,4.53
2022-11-17T13:46:50.123Z,4.50
2022-11-17T13:49:39.479Z,4.70
2022-11-17T13:52:31.048Z,4.10
2022-11-17T13:55:01.684Z,4.63
2022-11-17T13:57:29.930Z,4.40
2022-11-17T14:00:06.902Z,4.20
2022-11-17T14:02:36.011Z,4.00
2022-11-17T14:05:16.970Z,4.40
2022-11-17T14:07:44.666Z,4.33
2022-11-17T14:10:12.680Z,4.20
2022-11-17T14:12:42.499Z,4.63
2022-11-17T14:15:24.040Z,4.83
2022-11-17T14:17:53.430Z,4.50
2022-11-17T14:20:26.306Z,4.00
2022-11-17T14:23:03.735Z,4.57
2022-11-17T14:25:39.270Z,5.03
2022-11-17T14:28:18.767Z,4.23
2022-11-17T14:31:01.356Z,4.63
2022-11-17T14:33:28.368Z,5.07
2022-11-17T14:35:58.445Z,4.73
2022-11-17T14:38:26.679Z,4.50
2022-11-17T14:40:54.049Z,4.47
2022-11-17T14:43:22.546Z,4.60
2022-11-17T14:45:50.461Z,5.00
2022-11-17T14:48:19.560Z,4.70
2022-11-17T14:50:47.444Z,5.60
2022-11-17T14:53:14.960Z,5.27
2022-11-17T14:55:41.811Z,5.17
2022-11-17T14:58:10.003Z,5.27
2022-11-17T15:00:37.501Z,6.83
2022-11-17T15:03:04.491Z,5.80
2022-11-17T15:05:31.473Z,6.10
2022-11-17T15:07:58.409Z,5.40
2022-11-17T15:10:25.247Z,6.13
2022-11-17T15:12:52.399Z,6.20
2022-11-17T15:15:19.498Z,5.73
2022-11-17T15:17:46.337Z,5.60
2022-11-17T15:20:13.286Z,5.73
2022-11-17T15:22:40.097Z,5.63
2022-11-17T15:25:08.062Z,6.50
2022-11-17T15:27:34.895Z,6.07
2022-11-17T15:30:01.985Z,5.43
2022-11-17T15:32:28.891Z,5.83
2022-11-17T15:34:55.695Z,6.27
2022-11-17T15:37:22.487Z,6.37
2022-11-17T15:39:49.306Z,6.27
2022-11-17T15:42:16.157Z,6.40
2022-11-17T15:44:43.150Z,6.57
2022-11-17T15:47:09.948Z,6.73
2022-11-17T15:49:36.788Z,6.73
2022-11-17T15:52:03.651Z,6.00
2022-11-17T15:54:30.666Z,6.60
2022-11-17T15:56:57.563Z,6.30
2022-11-17T15:59:24.464Z,6.60
2022-11-17T16:01:53.840Z,6.83
2022-11-17T16:04:21.605Z,6.63
2022-11-17T16:06:48.960Z,6.90
2022-11-17T16:09:16.538Z,6.97
2022-11-17T16:11:44.254Z,7.07
2022-11-17T16:14:11.793Z,7.03
2022-11-17T16:16:40.876Z,7.00
2022-11-17T16:19:09.063Z,7.20
2022-11-17T16:21:39.892Z,7.33
2022-11-17T16:24:13.433Z,7.43
2022-11-17T16:26:40.323Z,7.40
2022-11-17T16:29:07.637Z,7.67
2022-11-17T16:31:36.463Z,7.23
2022-11-17T16:34:14.683Z,7.33
2022-11-17T16:36:45.140Z,7.90
2022-11-17T16:39:17.528Z,7.07
2022-11-17T16:41:45.766Z,8.17
2022-11-17T16:44:17.259Z,7.83
2022-11-17T16:46:47.572Z,8.47
2022-11-17T16:49:17.029Z,8.37
2022-11-17T16:51:53.769Z,8.13
2022-11-17T16:54:24.308Z,8.53
2022-11-17T16:56:51.234Z,8.80
2022-11-17T16:59:18.495Z,8.20
2022-11-17T17:01:45.540Z,8.47
2022-11-17T17:04:12.598Z,8.40
2022-11-17T17:06:41.727Z,7.87
2022-11-17T17:09:09.582Z,8.77
2022-11-17T17:11:37.490Z,8.30
2022-11-17T17:14:08.147Z,8.13
2022-11-17T17:16:36.864Z,8.33
2022-11-17T17:19:06.435Z,8.47
2022-11-17T17:21:34.036Z,8.13
2022-11-17T17:24:01.326Z,8.23
2022-11-17T17:26:30.430Z,9.00
2022-11-17T17:29:00.279Z,8.67
2022-11-17T17:31:31.924Z,8.77
2022-11-17T17:34:02.026Z,8.83
2022-11-17T17:36:29.326Z,8.93
2022-11-17T17:38:57.937Z,9.40
2022-11-17T17:41:27.270Z,9.30
2022-11-17T17:44:02.710Z,9.17
2022-11-17T17:46:31.933Z,8.77
2022-11-17T17:48:58.880Z,8.63
2022-11-17T17:51:28.649Z,8.07
2022-11-17T17:53:58.389Z,9.20
2022-11-17T17:56:25.718Z,8.60
2022-11-17T17:58:55.063Z,9.80
2022-11-17T18:01:45.791Z,9.83
2022-11-17T18:04:16.117Z,9.57
2022-11-17T18:06:47.298Z,9.87
2022-11-17T18:09:15.707Z,8.73
2022-11-17T18:11:47.796Z,9.33
2022-11-17T18:14:15.242Z,9.00
2022-11-17T18:16:42.245Z,10.17
2022-11-17T18:19:13.749Z,9.23
2022-11-17T18:21:40.858Z,9.20
2022-11-17T18:24:07.781Z,8.63
2022-11-17T18:26:36.048Z,8.70
2022-11-17T18:29:06.101Z,8.87
2022-11-17T18:31:34.920Z,9.30
2022-11-17T18:34:08.491Z,9.10
2022-11-17T18:36:35.788Z,9.03
2022-11-17T18:39:03.674Z,8.60
2022-11-17T18:41:32.255Z,8.63
2022-11-17T18:43:59.160Z,8.93
2022-11-17T18:46:30.755Z,9.17
2022-11-17T18:49:00.206Z,10.47
2022-11-17T18:51:31.706Z,9.10
2022-11-17T18:54:00.113Z,10.10
2022-11-17T18:56:31.020Z,9.30
2022-11-17T18:58:58.011Z,9.90
2022-11-17T19:01:37.297Z,9.80
2022-11-17T19:04:04.724Z,9.87
2022-11-17T19:06:31.680Z,9.80
2022-11-17T19:08:59.878Z,10.50
2022-11-17T19:11:28.135Z,10.43
2022-11-17T19:13:55.348Z,10.90
2022-11-17T19:16:26.788Z,11.37
2022-11-17T19:18:55.453Z,12.20
2022-11-17T19:21:27.858Z,12.33
2022-11-17T19:23:58.326Z,12.40
2022-11-17T19:26:33.721Z,12.10
2022-11-17T19:29:02.797Z,12.40
2022-11-17T19:31:30.183Z,12.87
2022-11-17T19:33:58.058Z,12.67
2022-11-17T19:36:27.422Z,13.73
2022-11-17T19:38:56.030Z,12.90
2022-11-17T19:41:36.832Z,13.27
2022-11-17T19:44:06.245Z,12.63
2022-11-17T19:46:36.446Z,12.43
2022-11-17T19:49:04.565Z,13.07
2022-11-17T19:51:33.626Z,14.10
2022-11-17T19:54:05.935Z,13.07
2022-11-17T19:56:32.977Z,12.53
2022-11-17T19:58:59.897Z,11.93
2022-11-17T20:01:28.508Z,11.50
2022-11-17T20:03:57.494Z,12.10
2022-11-17T20:06:27.496Z,11.77
2022-11-17T20:08:56.203Z,12.53
2022-11-17T20:11:26.258Z,12.03
2022-11-17T20:13:54.014Z,12.17
2022-11-17T20:16:24.706Z,12.33
2022-11-17T20:18:56.422Z,12.20
2022-11-17T20:21:27.467Z,12.43
2022-11-17T20:23:55.397Z,13.17
2022-11-17T20:26:24.576Z,12.97
2022-11-17T20:28:52.390Z,13.10
2022-11-17T20:31:21.812Z,14.20
2022-11-17T20:33:49.010Z,14.67
2022-11-17T20:36:20.726Z,14.10
2022-11-17T20:38:56.056Z,14.90
2022-11-17T20:41:23.501Z,14.30
2022-11-17T20:43:52.398Z,14.60
2022-11-17T20:46:21.049Z,15.13
2022-11-17T20:48:48.357Z,14.63
2022-11-17T20:51:22.283Z,14.47
2022-11-17T20:53:50.444Z,13.67
2022-11-17T20:56:18.047Z,13.43
2022-11-17T20:58:48.510Z,13.90
2022-11-17T21:01:20.671Z,13.67
2022-11-17T21:03:48.051Z,14.00
2022-11-17T21:06:15.844Z,13.40
2022-11-17T21:08:43.841Z,13.50
2022-11-17T21:11:36.271Z,13.27
2022-11-17T21:14:07.824Z,12.63
2022-11-17T21:16:37.311Z,14.57
2022-11-17T21:19:05.058Z,14.30
2022-11-17T21:21:32.085Z,14.57
2022-11-17T21:23:59.776Z,13.37
2022-11-17T21:26:27.779Z,13.47
2022-11-17T21:28:54.858Z,14.13
2022-11-17T21:31:24.104Z,14.07
2022-11-17T21:34:01.498Z,14.03
2022-11-17T21:36:30.425Z,14.10
2022-11-17T21:38:57.942Z,13.57
2022-11-17T21:41:30.231Z,13.57
2022-11-17T21:44:03.195Z,14.90
2022-11-17T21:46:32.455Z,14.43
2022-11-17T21:49:00.317Z,13.77
2022-11-17T21:51:38.281Z,13.03
2022-11-17T21:54:10.118Z,13.43
2022-11-17T21:56:37.483Z,13.50
2022-11-17T21:59:07.081Z,14.50
2022-11-17T22:01:34.938Z,14.20
2022-11-17T22:04:04.411Z,14.77
2022-11-17T22:06:31.303Z,14.07
2022-11-17T22:09:04.918Z,14.40
2022-11-17T22:11:37.801Z,14.50
2022-11-17T22:14:13.682Z,15.03
2022-11-17T22:16:48.035Z,14.47
2022-11-17T22:19:16.577Z,14.00
2022-11-17T22:21:44.307Z,14.03
2022-11-17T22:24:12.406Z,14.20
2022-11-17T22:26:41.700Z,14.30
2022-11-17T22:29:14.461Z,14.43
2022-11-17T22:31:41.898Z,15.83
2022-11-17T22:34:11.906Z,14.20
2022-11-17T22:36:40.420Z,13.57
2022-11-17T22:39:07.600Z,14.57
2022-11-17T22:41:34.995Z,13.80
2022-11-17T22:44:01.825Z,14.03
2022-11-17T22:46:29.768Z,13.97
2022-11-17T22:48:56.766Z,13.63
2022-11-17T22:51:43.584Z,12.87
2022-11-17T22:54:10.687Z,13.13
2022-11-17T22:56:37.706Z,12.87
2022-11-17T22:59:04.831Z,13.77
2022-11-17T23:01:32.000Z,13.13
2022-11-17T23:03:59.088Z,12.97
2022-11-17T23:06:29.364Z,14.07
2022-11-17T23:08:58.265Z,13.00
2022-11-17T23:11:41.355Z,13.93
2022-11-17T23:14:10.789Z,13.33
2022-11-17T23:16:38.463Z,14.20
2022-11-17T23:19:06.222Z,14.83
2022-11-17T23:21:45.647Z,14.90
2022-11-17T23:24:14.613Z,14.13
2022-11-17T23:26:42.439Z,15.80
2022-11-17T23:29:09.630Z,15.77
2022-11-17T23:31:41.288Z,16.30
2022-11-17T23:34:14.455Z,16.47
2022-11-17T23:36:44.350Z,16.07
2022-11-17T23:39:14.655Z,17.30
2022-11-17T23:41:42.047Z,17.20
2022-11-17T23:44:13.211Z,16.50
2022-11-17T23:46:40.286Z,17.20
2022-11-17T23:49:09.815Z,15.70
2022-11-17T23:51:36.802Z,15.37
2022-11-17T23:54:03.828Z,15.27
2022-11-17T23:56:34.374Z,15.63
2022-11-17T23:59:01.343Z,15.03
